sensor_id;sensor_type;location;lat;lon;timestamp;temperature;humidity
41344;DHT22;27089;50.022;7.604;2022-10-17T00:02:24;14.00;99.90
41344;DHT22;27089;50.022;7.604;2022-10-17T00:04:51;14.00;99.90
41344;DHT22;27089;50.022;7.604;2022-10-17T00:07:18;14.00;99.90
41344;DHT22;27089;50.022;7.604;2022-10-17T00:09:45;14.00;99.90
41344;DHT22;27089;50.022;7.604;2022-10-17T00:12:13;13.90;99.90
41344;DHT22;27089;50.022;7.604;2022-10-17T00:14:40;14.00;99.90
41344;DHT22;27089;50.022;7.604;2022-10-17T00:17:07;14.00;99.90
41344;DHT22;27089;50.022;7.604;2022-10-17T00:19:34;14.00;99.90
41344;DHT22;27089;50.022;7.604;2022-10-17T00:22:01;14.00;99.90
41344;DHT22;27089;50.022;7.604;2022-10-17T00:24:29;14.10;99.90
41344;DHT22;27089;50.022;7.604;2022-10-17T00:26:56;14.10;99.90
41344;DHT22;27089;50.022;7.604;2022-10-17T00:29:24;14.20;99.90
41344;DHT22;27089;50.022;7.604;2022-10-17T00:31:53;14.20;99.90
41344;DHT22;27089;50.022;7.604;2022-10-17T00:34:20;14.30;99.90
41344;DHT22;27089;50.022;7.604;2022-10-17T00:36:47;14.30;99.90
41344;DHT22;27089;50.022;7.604;2022-10-17T00:39:14;14.30;99.90
41344;DHT22;27089;50.022;7.604;2022-10-17T00:41:41;14.40;99.90
41344;DHT22;27089;50.022;7.604;2022-10-17T00:47:14;14.50;99.90
41344;DHT22;27089;50.022;7.604;2022-10-17T00:49:42;14.60;99.90
41344;DHT22;27089;50.022;7.604;2022-10-17T00:52:14;14.60;99.90
41344;DHT22;27089;50.022;7.604;2022-10-17T00:54:46;14.60;99.90
41344;DHT22;27089;50.022;7.604;2022-10-17T00:57:14;14.60;99.90
41344;DHT22;27089;50.022;7.604;2022-10-17T00:59:43;14.70;99.90
41344;DHT22;27089;50.022;7.604;2022-10-17T01:02:14;14.70;99.90
41344;DHT22;27089;50.022;7.604;2022-10-17T01:04:43;14.80;99.90
41344;DHT22;27089;50.022;7.604;2022-10-17T01:07:10;14.80;99.90
41344;DHT22;27089;50.022;7.604;2022-10-17T01:09:38;14.80;99.90
41344;DHT22;27089;50.022;7.604;2022-10-17T01:12:10;14.90;99.90
41344;DHT22;27089;50.022;7.604;2022-10-17T01:14:45;14.90;99.90
41344;DHT22;27089;50.022;7.604;2022-10-17T01:17:21;15.00;99.90
41344;DHT22;27089;50.022;7.604;2022-10-17T01:20:05;15.00;99.90
41344;DHT22;27089;50.022;7.604;2022-10-17T01:22:42;15.10;99.90
41344;DHT22;27089;50.022;7.604;2022-10-17T01:25:23;15.10;99.90
41344;DHT22;27089;50.022;7.604;2022-10-17T01:28:02;15.00;99.90
41344;DHT22;27089;50.022;7.604;2022-10-17T01:30:54;15.00;99.90
41344;DHT22;27089;50.022;7.604;2022-10-17T01:33:32;15.00;99.90
41344;DHT22;27089;50.022;7.604;2022-10-17T01:36:09;15.00;99.90
41344;DHT22;27089;50.022;7.604;2022-10-17T01:38:43;15.00;99.90
41344;DHT22;27089;50.022;7.604;2022-10-17T01:41:17;15.10;99.90
41344;DHT22;27089;50.022;7.604;2022-10-17T01:43:50;15.10;99.90
41344;DHT22;27089;50.022;7.604;2022-10-17T01:46:24;15.20;99.90
41344;DHT22;27089;50.022;7.604;2022-10-17T01:48:53;15.20;99.90
41344;DHT22;27089;50.022;7.604;2022-10-17T01:51:25;15.20;99.90
41344;DHT22;27089;50.022;7.604;2022-10-17T01:53:57;15.20;99.90
41344;DHT22;27089;50.022;7.604;2022-10-17T01:56:26;15.20;99.90
41344;DHT22;27089;50.022;7.604;2022-10-17T01:58:59;15.20;99.90
41344;DHT22;27089;50.022;7.604;2022-10-17T02:01:30;15.20;99.90
41344;DHT22;27089;50.022;7.604;2022-10-17T02:03:58;15.30;99.90
41344;DHT22;27089;50.022;7.604;2022-10-17T02:06:26;15.30;99.90
41344;DHT22;27089;50.022;7.604;2022-10-17T02:08:53;15.30;99.90
41344;DHT22;27089;50.022;7.604;2022-10-17T02:11:22;15.30;99.90
41344;DHT22;27089;50.022;7.604;2022-10-17T02:14:10;15.30;99.90
41344;DHT22;27089;50.022;7.604;2022-10-17T02:16:49;15.30;99.90
41344;DHT22;27089;50.022;7.604;2022-10-17T02:19:45;15.30;99.90
41344;DHT22;27089;50.022;7.604;2022-10-17T02:22:19;15.30;99.90
41344;DHT22;27089;50.022;7.604;2022-10-17T02:24:53;15.30;99.90
41344;DHT22;27089;50.022;7.604;2022-10-17T02:27:32;15.30;99.90
41344;DHT22;27089;50.022;7.604;2022-10-17T02:30:09;15.30;99.90
41344;DHT22;27089;50.022;7.604;2022-10-17T02:32:43;15.30;99.90
41344;DHT22;27089;50.022;7.604;2022-10-17T02:35:14;15.20;99.90
41344;DHT22;27089;50.022;7.604;2022-10-17T02:37:43;15.20;99.90
41344;DHT22;27089;50.022;7.604;2022-10-17T02:40:12;15.20;99.90
41344;DHT22;27089;50.022;7.604;2022-10-17T02:42:43;15.20;99.90
41344;DHT22;27089;50.022;7.604;2022-10-17T02:45:13;15.20;99.90
41344;DHT22;27089;50.022;7.604;2022-10-17T02:47:51;15.20;99.90
41344;DHT22;27089;50.022;7.604;2022-10-17T02:50:30;15.20;99.90
41344;DHT22;27089;50.022;7.604;2022-10-17T02:53:03;15.10;99.90
41344;DHT22;27089;50.022;7.604;2022-10-17T02:55:38;15.10;99.90
41344;DHT22;27089;50.022;7.604;2022-10-17T02:58:10;15.10;99.90
41344;DHT22;27089;50.022;7.604;2022-10-17T03:00:38;15.10;99.90
41344;DHT22;27089;50.022;7.604;2022-10-17T03:03:20;15.10;99.90
41344;DHT22;27089;50.022;7.604;2022-10-17T03:05:48;15.00;99.90
41344;DHT22;27089;50.022;7.604;2022-10-17T03:08:15;15.10;99.90
41344;DHT22;27089;50.022;7.604;2022-10-17T03:10:41;15.00;99.90
41344;DHT22;27089;50.022;7.604;2022-10-17T03:13:08;15.00;99.90
41344;DHT22;27089;50.022;7.604;2022-10-17T03:15:35;15.00;99.90
41344;DHT22;27089;50.022;7.604;2022-10-17T03:18:03;15.10;99.90
41344;DHT22;27089;50.022;7.604;2022-10-17T03:20:31;15.10;99.90
41344;DHT22;27089;50.022;7.604;2022-10-17T03:22:58;15.10;99.90
41344;DHT22;27089;50.022;7.604;2022-10-17T03:25:25;15.20;99.90
41344;DHT22;27089;50.022;7.604;2022-10-17T03:27:53;15.20;99.90
41344;DHT22;27089;50.022;7.604;2022-10-17T03:30:20;15.30;99.90
41344;DHT22;27089;50.022;7.604;2022-10-17T03:32:47;15.40;99.90
41344;DHT22;27089;50.022;7.604;2022-10-17T03:35:14;15.40;99.90
41344;DHT22;27089;50.022;7.604;2022-10-17T03:37:42;15.50;99.90
41344;DHT22;27089;50.022;7.604;2022-10-17T03:40:09;15.50;99.90
41344;DHT22;27089;50.022;7.604;2022-10-17T03:42:37;15.50;99.90
41344;DHT22;27089;50.022;7.604;2022-10-17T03:45:04;15.50;99.90
41344;DHT22;27089;50.022;7.604;2022-10-17T03:47:31;15.60;99.90
41344;DHT22;27089;50.022;7.604;2022-10-17T03:49:58;15.70;99.90
41344;DHT22;27089;50.022;7.604;2022-10-17T03:52:25;15.80;99.90
41344;DHT22;27089;50.022;7.604;2022-10-17T03:54:53;15.80;99.90
41344;DHT22;27089;50.022;7.604;2022-10-17T03:57:20;15.80;99.90
41344;DHT22;27089;50.022;7.604;2022-10-17T03:59:49;15.90;99.90
41344;DHT22;27089;50.022;7.604;2022-10-17T04:02:16;15.80;99.90
41344;DHT22;27089;50.022;7.604;2022-10-17T04:04:43;15.80;99.90
41344;DHT22;27089;50.022;7.604;2022-10-17T04:07:10;15.80;99.90
41344;DHT22;27089;50.022;7.604;2022-10-17T04:09:37;15.80;99.90
41344;DHT22;27089;50.022;7.604;2022-10-17T04:12:05;15.80;99.90
41344;DHT22;27089;50.022;7.604;2022-10-17T04:14:32;15.80;99.90
41344;DHT22;27089;50.022;7.604;2022-10-17T04:16:59;15.80;99.90
41344;DHT22;27089;50.022;7.604;2022-10-17T04:19:26;15.90;99.90
41344;DHT22;27089;50.022;7.604;2022-10-17T04:21:53;15.90;99.90
41344;DHT22;27089;50.022;7.604;2022-10-17T04:24:20;15.90;99.90
41344;DHT22;27089;50.022;7.604;2022-10-17T04:26:48;15.90;99.90
41344;DHT22;27089;50.022;7.604;2022-10-17T04:29:17;15.90;99.90
41344;DHT22;27089;50.022;7.604;2022-10-17T04:31:44;15.90;99.90
41344;DHT22;27089;50.022;7.604;2022-10-17T04:34:11;15.90;99.90
41344;DHT22;27089;50.022;7.604;2022-10-17T04:36:39;15.80;99.90
41344;DHT22;27089;50.022;7.604;2022-10-17T04:39:06;15.80;99.90
41344;DHT22;27089;50.022;7.604;2022-10-17T04:41:33;15.80;99.90
41344;DHT22;27089;50.022;7.604;2022-10-17T04:44:00;15.90;99.90
41344;DHT22;27089;50.022;7.604;2022-10-17T04:46:28;15.90;99.90
41344;DHT22;27089;50.022;7.604;2022-10-17T04:48:55;15.80;99.90
41344;DHT22;27089;50.022;7.604;2022-10-17T04:51:22;15.80;99.90
41344;DHT22;27089;50.022;7.604;2022-10-17T04:53:49;15.80;99.90
41344;DHT22;27089;50.022;7.604;2022-10-17T04:56:18;15.90;99.90
41344;DHT22;27089;50.022;7.604;2022-10-17T04:58:46;15.90;99.90
41344;DHT22;27089;50.022;7.604;2022-10-17T05:01:14;15.90;99.90
41344;DHT22;27089;50.022;7.604;2022-10-17T05:03:44;15.90;99.90
41344;DHT22;27089;50.022;7.604;2022-10-17T05:06:13;15.80;99.90
41344;DHT22;27089;50.022;7.604;2022-10-17T05:08:40;15.80;99.90
41344;DHT22;27089;50.022;7.604;2022-10-17T05:11:15;15.80;99.90
41344;DHT22;27089;50.022;7.604;2022-10-17T05:13:43;15.80;99.90
41344;DHT22;27089;50.022;7.604;2022-10-17T05:16:10;15.80;99.90
41344;DHT22;27089;50.022;7.604;2022-10-17T05:18:37;15.70;99.90
41344;DHT22;27089;50.022;7.604;2022-10-17T05:21:05;15.70;99.90
41344;DHT22;27089;50.022;7.604;2022-10-17T05:23:32;15.70;99.90
41344;DHT22;27089;50.022;7.604;2022-10-17T05:25:59;15.80;99.90
41344;DHT22;27089;50.022;7.604;2022-10-17T05:28:26;15.80;99.90
41344;DHT22;27089;50.022;7.604;2022-10-17T05:30:53;15.80;99.90
41344;DHT22;27089;50.022;7.604;2022-10-17T05:33:21;15.80;99.90
41344;DHT22;27089;50.022;7.604;2022-10-17T05:35:49;15.80;99.90
41344;DHT22;27089;50.022;7.604;2022-10-17T05:38:17;15.80;99.90
41344;DHT22;27089;50.022;7.604;2022-10-17T05:40:44;15.80;99.90
41344;DHT22;27089;50.022;7.604;2022-10-17T05:43:11;15.80;99.90
41344;DHT22;27089;50.022;7.604;2022-10-17T05:45:39;15.80;99.90
41344;DHT22;27089;50.022;7.604;2022-10-17T05:48:06;15.80;99.90
41344;DHT22;27089;50.022;7.604;2022-10-17T05:50:34;15.80;99.90
41344;DHT22;27089;50.022;7.604;2022-10-17T05:53:01;15.80;99.90
41344;DHT22;27089;50.022;7.604;2022-10-17T05:55:29;15.90;99.90
41344;DHT22;27089;50.022;7.604;2022-10-17T05:57:58;15.90;99.90
41344;DHT22;27089;50.022;7.604;2022-10-17T06:00:25;16.00;99.90
41344;DHT22;27089;50.022;7.604;2022-10-17T06:02:52;16.00;99.90
41344;DHT22;27089;50.022;7.604;2022-10-17T06:05:19;16.00;99.90
41344;DHT22;27089;50.022;7.604;2022-10-17T06:07:46;16.10;99.90
41344;DHT22;27089;50.022;7.604;2022-10-17T06:10:15;16.10;99.90
41344;DHT22;27089;50.022;7.604;2022-10-17T06:12:45;16.10;99.90
41344;DHT22;27089;50.022;7.604;2022-10-17T06:15:12;16.20;99.90
41344;DHT22;27089;50.022;7.604;2022-10-17T06:17:39;16.20;99.90
41344;DHT22;27089;50.022;7.604;2022-10-17T06:20:07;16.30;99.90
41344;DHT22;27089;50.022;7.604;2022-10-17T06:22:34;16.30;99.90
41344;DHT22;27089;50.022;7.604;2022-10-17T06:25:01;16.40;99.90
41344;DHT22;27089;50.022;7.604;2022-10-17T06:27:28;16.50;99.90
41344;DHT22;27089;50.022;7.604;2022-10-17T06:29:56;16.50;99.90
41344;DHT22;27089;50.022;7.604;2022-10-17T06:32:23;16.60;99.90
41344;DHT22;27089;50.022;7.604;2022-10-17T06:34:50;16.60;99.90
41344;DHT22;27089;50.022;7.604;2022-10-17T06:37:17;16.60;99.90
41344;DHT22;27089;50.022;7.604;2022-10-17T06:39:44;16.70;99.90
41344;DHT22;27089;50.022;7.604;2022-10-17T06:42:11;16.70;99.90
41344;DHT22;27089;50.022;7.604;2022-10-17T06:44:38;16.80;99.90
41344;DHT22;27089;50.022;7.604;2022-10-17T06:47:08;16.90;99.90
41344;DHT22;27089;50.022;7.604;2022-10-17T06:49:35;16.90;99.90
41344;DHT22;27089;50.022;7.604;2022-10-17T06:52:02;17.00;99.90
41344;DHT22;27089;50.022;7.604;2022-10-17T06:54:30;17.00;99.90
41344;DHT22;27089;50.022;7.604;2022-10-17T06:57:02;17.10;99.90
41344;DHT22;27089;50.022;7.604;2022-10-17T06:59:30;17.20;99.90
41344;DHT22;27089;50.022;7.604;2022-10-17T07:01:57;17.20;99.90
41344;DHT22;27089;50.022;7.604;2022-10-17T07:04:26;17.30;99.90
41344;DHT22;27089;50.022;7.604;2022-10-17T07:06:53;17.40;99.90
41344;DHT22;27089;50.022;7.604;2022-10-17T07:09:21;17.50;99.90
41344;DHT22;27089;50.022;7.604;2022-10-17T07:11:48;17.60;99.90
41344;DHT22;27089;50.022;7.604;2022-10-17T07:14:15;17.70;99.90
41344;DHT22;27089;50.022;7.604;2022-10-17T07:16:43;17.80;99.90
41344;DHT22;27089;50.022;7.604;2022-10-17T07:19:10;17.90;99.90
41344;DHT22;27089;50.022;7.604;2022-10-17T07:21:39;18.00;99.90
41344;DHT22;27089;50.022;7.604;2022-10-17T07:24:06;18.00;99.90
41344;DHT22;27089;50.022;7.604;2022-10-17T07:26:35;18.10;99.90
41344;DHT22;27089;50.022;7.604;2022-10-17T07:29:04;18.20;99.90
41344;DHT22;27089;50.022;7.604;2022-10-17T07:31:34;18.10;99.90
41344;DHT22;27089;50.022;7.604;2022-10-17T07:34:06;18.00;99.90
41344;DHT22;27089;50.022;7.604;2022-10-17T07:36:33;18.10;99.90
41344;DHT22;27089;50.022;7.604;2022-10-17T07:39:02;18.00;99.90
41344;DHT22;27089;50.022;7.604;2022-10-17T07:41:30;17.90;99.90
41344;DHT22;27089;50.022;7.604;2022-10-17T07:43:57;17.90;99.90
41344;DHT22;27089;50.022;7.604;2022-10-17T07:46:25;17.90;99.90
41344;DHT22;27089;50.022;7.604;2022-10-17T07:48:54;18.00;99.90
41344;DHT22;27089;50.022;7.604;2022-10-17T07:51:21;18.00;99.90
41344;DHT22;27089;50.022;7.604;2022-10-17T07:53:48;18.10;99.90
41344;DHT22;27089;50.022;7.604;2022-10-17T07:56:18;18.20;99.90
41344;DHT22;27089;50.022;7.604;2022-10-17T07:58:49;18.30;99.90
41344;DHT22;27089;50.022;7.604;2022-10-17T08:01:17;18.30;99.90
41344;DHT22;27089;50.022;7.604;2022-10-17T08:03:46;18.30;99.90
41344;DHT22;27089;50.022;7.604;2022-10-17T08:06:14;18.30;99.90
41344;DHT22;27089;50.022;7.604;2022-10-17T08:08:41;18.30;99.90
41344;DHT22;27089;50.022;7.604;2022-10-17T08:11:11;18.40;99.90
41344;DHT22;27089;50.022;7.604;2022-10-17T08:13:40;18.40;99.90
41344;DHT22;27089;50.022;7.604;2022-10-17T08:16:09;18.40;99.90
41344;DHT22;27089;50.022;7.604;2022-10-17T08:18:38;18.50;99.90
41344;DHT22;27089;50.022;7.604;2022-10-17T08:21:06;18.60;99.90
41344;DHT22;27089;50.022;7.604;2022-10-17T08:23:36;18.70;99.90
41344;DHT22;27089;50.022;7.604;2022-10-17T08:26:04;18.70;99.90
41344;DHT22;27089;50.022;7.604;2022-10-17T08:28:33;18.80;99.90
41344;DHT22;27089;50.022;7.604;2022-10-17T08:31:03;19.00;99.90
41344;DHT22;27089;50.022;7.604;2022-10-17T08:33:30;20.10;99.90
41344;DHT22;27089;50.022;7.604;2022-10-17T08:35:59;21.50;99.90
41344;DHT22;27089;50.022;7.604;2022-10-17T08:38:28;22.70;99.90
41344;DHT22;27089;50.022;7.604;2022-10-17T08:40:58;23.80;99.90
41344;DHT22;27089;50.022;7.604;2022-10-17T08:43:33;24.50;99.90
41344;DHT22;27089;50.022;7.604;2022-10-17T08:46:05;24.80;99.90
41344;DHT22;27089;50.022;7.604;2022-10-17T08:48:37;25.20;99.90
41344;DHT22;27089;50.022;7.604;2022-10-17T08:51:10;25.70;99.90
41344;DHT22;27089;50.022;7.604;2022-10-17T08:53:42;25.90;99.90
41344;DHT22;27089;50.022;7.604;2022-10-17T08:56:17;26.00;99.90
41344;DHT22;27089;50.022;7.604;2022-10-17T08:58:45;26.10;99.90
41344;DHT22;27089;50.022;7.604;2022-10-17T09:01:29;26.10;99.90
41344;DHT22;27089;50.022;7.604;2022-10-17T09:04:16;26.20;99.90
41344;DHT22;27089;50.022;7.604;2022-10-17T09:06:51;26.20;99.90
41344;DHT22;27089;50.022;7.604;2022-10-17T09:09:30;26.10;99.90
41344;DHT22;27089;50.022;7.604;2022-10-17T09:12:14;26.00;99.90
41344;DHT22;27089;50.022;7.604;2022-10-17T09:15:02;25.80;99.90
41344;DHT22;27089;50.022;7.604;2022-10-17T09:17:43;25.80;99.90
41344;DHT22;27089;50.022;7.604;2022-10-17T09:20:18;26.10;99.90
41344;DHT22;27089;50.022;7.604;2022-10-17T09:22:51;26.20;99.90
41344;DHT22;27089;50.022;7.604;2022-10-17T09:25:20;26.10;99.90
41344;DHT22;27089;50.022;7.604;2022-10-17T09:27:50;26.20;99.90
41344;DHT22;27089;50.022;7.604;2022-10-17T09:30:27;26.00;99.90
41344;DHT22;27089;50.022;7.604;2022-10-17T09:32:58;25.80;99.90
41344;DHT22;27089;50.022;7.604;2022-10-17T09:35:26;25.80;99.90
41344;DHT22;27089;50.022;7.604;2022-10-17T09:37:55;25.60;99.90
41344;DHT22;27089;50.022;7.604;2022-10-17T09:40:25;25.50;99.90
41344;DHT22;27089;50.022;7.604;2022-10-17T09:42:53;25.40;99.90
41344;DHT22;27089;50.022;7.604;2022-10-17T09:45:21;25.50;99.90
41344;DHT22;27089;50.022;7.604;2022-10-17T09:47:58;25.40;99.90
41344;DHT22;27089;50.022;7.604;2022-10-17T09:50:30;25.30;99.90
41344;DHT22;27089;50.022;7.604;2022-10-17T09:53:01;25.00;99.90
41344;DHT22;27089;50.022;7.604;2022-10-17T09:55:46;25.10;99.90
41344;DHT22;27089;50.022;7.604;2022-10-17T09:58:15;25.20;99.90
41344;DHT22;27089;50.022;7.604;2022-10-17T10:00:43;25.30;99.90
41344;DHT22;27089;50.022;7.604;2022-10-17T10:03:16;25.40;99.90
41344;DHT22;27089;50.022;7.604;2022-10-17T10:06:00;25.60;99.90
41344;DHT22;27089;50.022;7.604;2022-10-17T10:08:30;25.70;99.90
41344;DHT22;27089;50.022;7.604;2022-10-17T10:10:59;25.70;99.90
41344;DHT22;27089;50.022;7.604;2022-10-17T10:13:30;25.80;99.90
41344;DHT22;27089;50.022;7.604;2022-10-17T10:16:13;25.80;99.90
41344;DHT22;27089;50.022;7.604;2022-10-17T10:18:43;25.70;99.90
41344;DHT22;27089;50.022;7.604;2022-10-17T10:21:11;25.50;99.90
41344;DHT22;27089;50.022;7.604;2022-10-17T10:23:40;25.50;99.90
41344;DHT22;27089;50.022;7.604;2022-10-17T10:26:29;25.50;99.90
41344;DHT22;27089;50.022;7.604;2022-10-17T10:28:59;25.60;99.90
41344;DHT22;27089;50.022;7.604;2022-10-17T10:31:31;25.40;99.90
41344;DHT22;27089;50.022;7.604;2022-10-17T10:34:09;25.00;99.90
41344;DHT22;27089;50.022;7.604;2022-10-17T10:36:51;24.50;99.90
41344;DHT22;27089;50.022;7.604;2022-10-17T10:39:38;24.00;99.90
41344;DHT22;27089;50.022;7.604;2022-10-17T10:42:17;23.60;99.90
41344;DHT22;27089;50.022;7.604;2022-10-17T10:44:46;23.50;99.90
41344;DHT22;27089;50.022;7.604;2022-10-17T10:47:20;23.50;99.90
41344;DHT22;27089;50.022;7.604;2022-10-17T10:49:52;23.60;99.90
41344;DHT22;27089;50.022;7.604;2022-10-17T10:52:36;23.80;99.90
41344;DHT22;27089;50.022;7.604;2022-10-17T10:55:22;24.00;99.90
41344;DHT22;27089;50.022;7.604;2022-10-17T10:57:54;24.10;99.90
41344;DHT22;27089;50.022;7.604;2022-10-17T11:00:25;24.10;99.90
41344;DHT22;27089;50.022;7.604;2022-10-17T11:02:58;24.10;99.90
41344;DHT22;27089;50.022;7.604;2022-10-17T11:05:36;24.00;99.90
41344;DHT22;27089;50.022;7.604;2022-10-17T11:08:12;23.80;99.90
41344;DHT22;27089;50.022;7.604;2022-10-17T11:10:54;23.40;99.90
41344;DHT22;27089;50.022;7.604;2022-10-17T11:13:27;23.10;99.90
41344;DHT22;27089;50.022;7.604;2022-10-17T11:16:06;22.80;99.90
41344;DHT22;27089;50.022;7.604;2022-10-17T11:18:39;22.70;99.90
41344;DHT22;27089;50.022;7.604;2022-10-17T11:21:15;22.80;99.90
41344;DHT22;27089;50.022;7.604;2022-10-17T11:23:46;22.90;99.90
41344;DHT22;27089;50.022;7.604;2022-10-17T11:26:18;22.90;99.90
41344;DHT22;27089;50.022;7.604;2022-10-17T11:28:51;22.90;99.90
41344;DHT22;27089;50.022;7.604;2022-10-17T11:31:20;22.90;99.90
41344;DHT22;27089;50.022;7.604;2022-10-17T11:33:51;22.90;99.90
41344;DHT22;27089;50.022;7.604;2022-10-17T11:36:26;22.90;99.90
41344;DHT22;27089;50.022;7.604;2022-10-17T11:38:56;22.70;99.90
41344;DHT22;27089;50.022;7.604;2022-10-17T11:41:28;22.60;99.90
41344;DHT22;27089;50.022;7.604;2022-10-17T11:44:02;22.40;99.90
41344;DHT22;27089;50.022;7.604;2022-10-17T11:46:33;22.30;99.90
41344;DHT22;27089;50.022;7.604;2022-10-17T11:49:06;22.40;99.90
41344;DHT22;27089;50.022;7.604;2022-10-17T11:51:44;22.50;99.90
41344;DHT22;27089;50.022;7.604;2022-10-17T11:54:15;22.60;99.90
41344;DHT22;27089;50.022;7.604;2022-10-17T11:56:49;22.60;99.90
41344;DHT22;27089;50.022;7.604;2022-10-17T11:59:46;22.70;99.90
41344;DHT22;27089;50.022;7.604;2022-10-17T12:02:19;22.70;99.90
41344;DHT22;27089;50.022;7.604;2022-10-17T12:04:55;22.70;99.90
41344;DHT22;27089;50.022;7.604;2022-10-17T12:07:35;22.70;99.90
41344;DHT22;27089;50.022;7.604;2022-10-17T12:10:14;22.70;99.90
41344;DHT22;27089;50.022;7.604;2022-10-17T12:12:44;22.60;99.90
41344;DHT22;27089;50.022;7.604;2022-10-17T12:15:29;22.70;99.90
41344;DHT22;27089;50.022;7.604;2022-10-17T12:17:58;22.70;99.90
41344;DHT22;27089;50.022;7.604;2022-10-17T12:20:32;22.70;99.90
41344;DHT22;27089;50.022;7.604;2022-10-17T12:23:12;22.70;99.90
41344;DHT22;27089;50.022;7.604;2022-10-17T12:25:49;22.80;99.90
41344;DHT22;27089;50.022;7.604;2022-10-17T12:28:26;22.70;99.90
41344;DHT22;27089;50.022;7.604;2022-10-17T12:30:58;22.80;99.90
41344;DHT22;27089;50.022;7.604;2022-10-17T12:33:30;22.80;99.90
41344;DHT22;27089;50.022;7.604;2022-10-17T12:39:48;22.90;99.90
41344;DHT22;27089;50.022;7.604;2022-10-17T12:42:45;23.10;99.90
41344;DHT22;27089;50.022;7.604;2022-10-17T12:51:21;23.40;99.90
41344;DHT22;27089;50.022;7.604;2022-10-17T12:53:55;23.40;99.90
41344;DHT22;27089;50.022;7.604;2022-10-17T12:56:33;23.50;99.90
41344;DHT22;27089;50.022;7.604;2022-10-17T12:59:06;23.50;99.90
41344;DHT22;27089;50.022;7.604;2022-10-17T13:01:36;23.50;99.90
41344;DHT22;27089;50.022;7.604;2022-10-17T13:04:04;23.60;99.90
41344;DHT22;27089;50.022;7.604;2022-10-17T13:06:33;23.60;99.90
41344;DHT22;27089;50.022;7.604;2022-10-17T13:09:07;23.60;99.90
41344;DHT22;27089;50.022;7.604;2022-10-17T13:11:38;23.50;99.90
41344;DHT22;27089;50.022;7.604;2022-10-17T13:14:11;23.40;99.90
41344;DHT22;27089;50.022;7.604;2022-10-17T13:16:42;23.40;99.90
41344;DHT22;27089;50.022;7.604;2022-10-17T13:19:18;23.30;99.90
41344;DHT22;27089;50.022;7.604;2022-10-17T13:21:51;23.20;99.90
41344;DHT22;27089;50.022;7.604;2022-10-17T13:24:22;23.20;99.90
41344;DHT22;27089;50.022;7.604;2022-10-17T13:26:50;23.10;99.90
41344;DHT22;27089;50.022;7.604;2022-10-17T13:29:17;23.00;99.90
41344;DHT22;27089;50.022;7.604;2022-10-17T13:31:51;22.90;99.90
41344;DHT22;27089;50.022;7.604;2022-10-17T13:34:20;22.70;99.90
41344;DHT22;27089;50.022;7.604;2022-10-17T13:36:51;22.60;99.90
41344;DHT22;27089;50.022;7.604;2022-10-17T13:39:22;22.60;99.90
41344;DHT22;27089;50.022;7.604;2022-10-17T13:41:51;22.50;99.90
41344;DHT22;27089;50.022;7.604;2022-10-17T13:44:22;22.40;99.90
41344;DHT22;27089;50.022;7.604;2022-10-17T13:46:50;22.30;99.90
41344;DHT22;27089;50.022;7.604;2022-10-17T13:49:20;22.20;99.90
41344;DHT22;27089;50.022;7.604;2022-10-17T13:51:51;22.00;99.90
41344;DHT22;27089;50.022;7.604;2022-10-17T13:54:32;21.90;99.90
41344;DHT22;27089;50.022;7.604;2022-10-17T13:57:02;21.80;99.90
41344;DHT22;27089;50.022;7.604;2022-10-17T13:59:36;21.80;99.90
41344;DHT22;27089;50.022;7.604;2022-10-17T14:02:03;21.70;99.90
41344;DHT22;27089;50.022;7.604;2022-10-17T14:04:30;21.80;99.90
41344;DHT22;27089;50.022;7.604;2022-10-17T14:06:57;21.80;99.90
41344;DHT22;27089;50.022;7.604;2022-10-17T14:09:26;22.10;99.90
41344;DHT22;27089;50.022;7.604;2022-10-17T14:12:01;22.30;99.90
41344;DHT22;27089;50.022;7.604;2022-10-17T14:14:29;22.60;99.90
41344;DHT22;27089;50.022;7.604;2022-10-17T14:16:56;22.70;99.90
41344;DHT22;27089;50.022;7.604;2022-10-17T14:19:25;22.80;99.90
41344;DHT22;27089;50.022;7.604;2022-10-17T14:21:54;22.90;99.90
41344;DHT22;27089;50.022;7.604;2022-10-17T14:24:29;22.80;99.90
41344;DHT22;27089;50.022;7.604;2022-10-17T14:26:58;22.80;99.90
41344;DHT22;27089;50.022;7.604;2022-10-17T14:29:28;22.80;99.90
41344;DHT22;27089;50.022;7.604;2022-10-17T14:32:01;22.90;99.90
41344;DHT22;27089;50.022;7.604;2022-10-17T14:34:31;22.90;99.90
41344;DHT22;27089;50.022;7.604;2022-10-17T14:36:59;22.90;99.90
41344;DHT22;27089;50.022;7.604;2022-10-17T14:39:27;22.80;99.90
41344;DHT22;27089;50.022;7.604;2022-10-17T14:41:55;22.70;99.90
41344;DHT22;27089;50.022;7.604;2022-10-17T14:44:25;22.70;99.90
41344;DHT22;27089;50.022;7.604;2022-10-17T14:46:56;22.60;99.90
41344;DHT22;27089;50.022;7.604;2022-10-17T14:49:34;22.60;99.90
41344;DHT22;27089;50.022;7.604;2022-10-17T14:52:24;22.50;99.90
41344;DHT22;27089;50.022;7.604;2022-10-17T14:54:52;22.40;99.90
41344;DHT22;27089;50.022;7.604;2022-10-17T14:57:23;22.20;99.90
41344;DHT22;27089;50.022;7.604;2022-10-17T14:59:51;22.00;99.90
41344;DHT22;27089;50.022;7.604;2022-10-17T15:02:20;21.90;99.90
41344;DHT22;27089;50.022;7.604;2022-10-17T15:04:47;21.70;99.90
41344;DHT22;27089;50.022;7.604;2022-10-17T15:07:14;21.60;99.90
41344;DHT22;27089;50.022;7.604;2022-10-17T15:09:42;21.50;99.90
41344;DHT22;27089;50.022;7.604;2022-10-17T15:12:14;21.40;99.90
41344;DHT22;27089;50.022;7.604;2022-10-17T15:14:41;21.30;99.90
41344;DHT22;27089;50.022;7.604;2022-10-17T15:17:13;21.20;99.90
41344;DHT22;27089;50.022;7.604;2022-10-17T15:19:42;21.20;99.90
41344;DHT22;27089;50.022;7.604;2022-10-17T15:22:09;21.20;99.90
41344;DHT22;27089;50.022;7.604;2022-10-17T15:24:36;21.10;99.90
41344;DHT22;27089;50.022;7.604;2022-10-17T15:27:06;21.00;99.90
41344;DHT22;27089;50.022;7.604;2022-10-17T15:29:38;21.00;99.90
41344;DHT22;27089;50.022;7.604;2022-10-17T15:32:05;20.90;99.90
41344;DHT22;27089;50.022;7.604;2022-10-17T15:34:32;20.80;99.90
41344;DHT22;27089;50.022;7.604;2022-10-17T15:37:01;20.80;99.90
41344;DHT22;27089;50.022;7.604;2022-10-17T15:39:29;20.70;99.90
41344;DHT22;27089;50.022;7.604;2022-10-17T15:41:56;20.70;99.90
41344;DHT22;27089;50.022;7.604;2022-10-17T15:44:23;20.60;99.90
41344;DHT22;27089;50.022;7.604;2022-10-17T15:46:50;20.50;99.90
41344;DHT22;27089;50.022;7.604;2022-10-17T15:49:18;20.50;99.90
41344;DHT22;27089;50.022;7.604;2022-10-17T15:51:45;20.40;99.90
41344;DHT22;27089;50.022;7.604;2022-10-17T15:54:13;20.40;99.90
41344;DHT22;27089;50.022;7.604;2022-10-17T15:56:41;20.40;99.90
41344;DHT22;27089;50.022;7.604;2022-10-17T15:59:12;20.30;99.90
41344;DHT22;27089;50.022;7.604;2022-10-17T16:01:39;20.30;99.90
41344;DHT22;27089;50.022;7.604;2022-10-17T16:04:08;20.20;99.90
41344;DHT22;27089;50.022;7.604;2022-10-17T16:06:37;20.20;99.90